Аэропорт: Гомель. Гомель

ICAO: UMGG

METAR:
2024-04-22 21:00:00
UMGG 222100Z 19003MPS 9999 SCT046 06/04 Q1019 NOSIG
TAF:
2024-04-22 17:01:00
TAF UMGG 221701Z 2218/2318 23006MPS 9999 BKN019 
  BECMG 2301/2303 30005MPS 
  TEMPO 2303/2308 3000 -SHRA BR BKN010 BKN025CB 
  BECMG 2308/2310 25006MPS